sensor_id;sensor_type;location;lat;lon;timestamp;P1;durP1;ratioP1;P2;durP2;ratioP2
78108;SDS011;67354;48.068;11.612;2023-02-21T00:02:28;2.83;;;2.08;;
78108;SDS011;67354;48.068;11.612;2023-02-21T00:05:12;3.63;;;2.40;;
78108;SDS011;67354;48.068;11.612;2023-02-21T00:07:56;3.97;;;2.22;;
78108;SDS011;67354;48.068;11.612;2023-02-21T00:10:40;4.95;;;2.00;;
78108;SDS011;67354;48.068;11.612;2023-02-21T00:13:24;4.22;;;2.40;;
78108;SDS011;67354;48.068;11.612;2023-02-21T00:16:08;2.60;;;1.90;;
78108;SDS011;67354;48.068;11.612;2023-02-21T00:18:52;2.72;;;1.80;;
78108;SDS011;67354;48.068;11.612;2023-02-21T00:21:36;2.30;;;1.80;;
78108;SDS011;67354;48.068;11.612;2023-02-21T00:24:20;2.60;;;1.95;;
78108;SDS011;67354;48.068;11.612;2023-02-21T00:27:04;3.50;;;2.15;;
78108;SDS011;67354;48.068;11.612;2023-02-21T00:29:48;3.00;;;1.90;;
78108;SDS011;67354;48.068;11.612;2023-02-21T00:32:33;3.38;;;1.88;;
78108;SDS011;67354;48.068;11.612;2023-02-21T00:35:17;2.72;;;2.05;;
78108;SDS011;67354;48.068;11.612;2023-02-21T00:38:01;4.78;;;2.10;;
78108;SDS011;67354;48.068;11.612;2023-02-21T00:40:45;3.17;;;1.90;;
78108;SDS011;67354;48.068;11.612;2023-02-21T00:43:29;3.13;;;2.20;;
78108;SDS011;67354;48.068;11.612;2023-02-21T00:46:14;3.08;;;2.10;;
78108;SDS011;67354;48.068;11.612;2023-02-21T00:48:58;3.70;;;2.00;;
78108;SDS011;67354;48.068;11.612;2023-02-21T00:51:42;4.75;;;2.25;;
78108;SDS011;67354;48.068;11.612;2023-02-21T00:54:26;4.60;;;2.03;;
78108;SDS011;67354;48.068;11.612;2023-02-21T00:57:10;2.38;;;1.80;;
78108;SDS011;67354;48.068;11.612;2023-02-21T00:59:54;3.92;;;2.42;;
78108;SDS011;67354;48.068;11.612;2023-02-21T01:02:38;4.30;;;2.38;;
78108;SDS011;67354;48.068;11.612;2023-02-21T01:05:21;4.03;;;2.40;;
78108;SDS011;67354;48.068;11.612;2023-02-21T01:08:05;3.85;;;2.00;;
78108;SDS011;67354;48.068;11.612;2023-02-21T01:10:49;4.13;;;1.88;;
78108;SDS011;67354;48.068;11.612;2023-02-21T01:13:33;3.38;;;2.03;;
78108;SDS011;67354;48.068;11.612;2023-02-21T01:16:17;4.47;;;2.13;;
78108;SDS011;67354;48.068;11.612;2023-02-21T01:19:01;3.50;;;2.10;;
78108;SDS011;67354;48.068;11.612;2023-02-21T01:21:45;2.85;;;1.88;;
78108;SDS011;67354;48.068;11.612;2023-02-21T01:24:29;3.65;;;2.15;;
78108;SDS011;67354;48.068;11.612;2023-02-21T01:27:12;2.03;;;1.52;;
78108;SDS011;67354;48.068;11.612;2023-02-21T01:29:56;2.95;;;1.90;;
78108;SDS011;67354;48.068;11.612;2023-02-21T01:32:40;2.58;;;1.90;;
78108;SDS011;67354;48.068;11.612;2023-02-21T01:35:24;2.95;;;1.90;;
78108;SDS011;67354;48.068;11.612;2023-02-21T01:38:08;3.42;;;2.35;;
78108;SDS011;67354;48.068;11.612;2023-02-21T01:40:52;2.85;;;1.90;;
78108;SDS011;67354;48.068;11.612;2023-02-21T01:43:36;3.67;;;2.20;;
78108;SDS011;67354;48.068;11.612;2023-02-21T01:46:20;5.13;;;1.95;;
78108;SDS011;67354;48.068;11.612;2023-02-21T01:49:07;3.55;;;1.90;;
78108;SDS011;67354;48.068;11.612;2023-02-21T01:51:53;4.20;;;2.10;;
78108;SDS011;67354;48.068;11.612;2023-02-21T01:54:38;4.15;;;2.40;;
78108;SDS011;67354;48.068;11.612;2023-02-21T01:57:25;3.38;;;2.30;;
78108;SDS011;67354;48.068;11.612;2023-02-21T02:00:10;3.78;;;1.95;;
78108;SDS011;67354;48.068;11.612;2023-02-21T02:02:57;3.28;;;2.00;;
78108;SDS011;67354;48.068;11.612;2023-02-21T02:05:45;3.55;;;2.10;;
78108;SDS011;67354;48.068;11.612;2023-02-21T02:08:32;3.42;;;2.10;;
78108;SDS011;67354;48.068;11.612;2023-02-21T02:11:22;3.35;;;1.85;;
78108;SDS011;67354;48.068;11.612;2023-02-21T02:17:08;2.90;;;2.20;;
78108;SDS011;67354;48.068;11.612;2023-02-21T02:25:35;4.07;;;2.35;;
78108;SDS011;67354;48.068;11.612;2023-02-21T02:28:21;3.97;;;1.90;;
78108;SDS011;67354;48.068;11.612;2023-02-21T02:31:16;2.72;;;1.90;;
78108;SDS011;67354;48.068;11.612;2023-02-21T02:45:36;3.72;;;2.10;;
78108;SDS011;67354;48.068;11.612;2023-02-21T02:50:35;5.35;;;2.35;;
78108;SDS011;67354;48.068;11.612;2023-02-21T02:53:02;3.08;;;2.20;;
78108;SDS011;67354;48.068;11.612;2023-02-21T02:55:39;3.08;;;2.20;;
78108;SDS011;67354;48.068;11.612;2023-02-21T02:58:08;3.95;;;2.22;;
78108;SDS011;67354;48.068;11.612;2023-02-21T03:00:35;3.60;;;2.50;;
78108;SDS011;67354;48.068;11.612;2023-02-21T03:03:09;2.72;;;2.10;;
78108;SDS011;67354;48.068;11.612;2023-02-21T03:05:49;3.22;;;2.10;;
78108;SDS011;67354;48.068;11.612;2023-02-21T03:15:56;2.53;;;1.83;;
78108;SDS011;67354;48.068;11.612;2023-02-21T03:18:26;4.22;;;2.10;;
78108;SDS011;67354;48.068;11.612;2023-02-21T03:20:58;3.85;;;2.20;;
78108;SDS011;67354;48.068;11.612;2023-02-21T03:23:27;4.38;;;2.10;;
78108;SDS011;67354;48.068;11.612;2023-02-21T03:25:55;3.75;;;2.03;;
78108;SDS011;67354;48.068;11.612;2023-02-21T03:28:23;3.13;;;2.10;;
78108;SDS011;67354;48.068;11.612;2023-02-21T03:30:50;3.67;;;2.38;;
78108;SDS011;67354;48.068;11.612;2023-02-21T03:33:17;2.85;;;1.95;;
78108;SDS011;67354;48.068;11.612;2023-02-21T03:35:42;4.10;;;2.42;;
78108;SDS011;67354;48.068;11.612;2023-02-21T03:38:07;3.67;;;1.95;;
78108;SDS011;67354;48.068;11.612;2023-02-21T03:40:34;3.40;;;2.20;;
78108;SDS011;67354;48.068;11.612;2023-02-21T03:43:00;3.50;;;2.17;;
78108;SDS011;67354;48.068;11.612;2023-02-21T03:45:26;3.95;;;2.15;;
78108;SDS011;67354;48.068;11.612;2023-02-21T03:47:51;3.20;;;2.08;;
78108;SDS011;67354;48.068;11.612;2023-02-21T03:50:17;4.10;;;2.10;;
78108;SDS011;67354;48.068;11.612;2023-02-21T03:52:42;2.97;;;2.20;;
78108;SDS011;67354;48.068;11.612;2023-02-21T03:55:08;2.87;;;1.93;;
78108;SDS011;67354;48.068;11.612;2023-02-21T03:57:33;3.58;;;2.20;;
78108;SDS011;67354;48.068;11.612;2023-02-21T03:59:59;3.00;;;2.20;;
78108;SDS011;67354;48.068;11.612;2023-02-21T04:02:24;3.22;;;2.15;;
78108;SDS011;67354;48.068;11.612;2023-02-21T04:04:50;4.05;;;2.15;;
78108;SDS011;67354;48.068;11.612;2023-02-21T04:07:16;4.50;;;2.13;;
78108;SDS011;67354;48.068;11.612;2023-02-21T04:09:42;3.80;;;2.13;;
78108;SDS011;67354;48.068;11.612;2023-02-21T04:12:08;4.38;;;2.20;;
78108;SDS011;67354;48.068;11.612;2023-02-21T04:14:34;3.45;;;2.08;;
78108;SDS011;67354;48.068;11.612;2023-02-21T04:16:59;5.73;;;2.60;;
78108;SDS011;67354;48.068;11.612;2023-02-21T04:19:24;3.23;;;2.10;;
78108;SDS011;67354;48.068;11.612;2023-02-21T04:21:50;5.50;;;2.63;;
78108;SDS011;67354;48.068;11.612;2023-02-21T04:24:15;3.20;;;2.30;;
78108;SDS011;67354;48.068;11.612;2023-02-21T04:26:40;3.53;;;2.17;;
78108;SDS011;67354;48.068;11.612;2023-02-21T04:29:06;3.37;;;1.90;;
78108;SDS011;67354;48.068;11.612;2023-02-21T04:31:31;3.38;;;2.40;;
78108;SDS011;67354;48.068;11.612;2023-02-21T04:33:57;4.97;;;2.40;;
78108;SDS011;67354;48.068;11.612;2023-02-21T04:36:23;3.30;;;2.50;;
78108;SDS011;67354;48.068;11.612;2023-02-21T04:38:48;4.90;;;2.87;;
78108;SDS011;67354;48.068;11.612;2023-02-21T04:41:14;2.80;;;1.80;;
78108;SDS011;67354;48.068;11.612;2023-02-21T04:43:41;3.70;;;2.08;;
78108;SDS011;67354;48.068;11.612;2023-02-21T04:46:07;3.75;;;2.33;;
78108;SDS011;67354;48.068;11.612;2023-02-21T04:48:32;6.53;;;2.40;;
78108;SDS011;67354;48.068;11.612;2023-02-21T04:50:57;7.23;;;2.57;;
78108;SDS011;67354;48.068;11.612;2023-02-21T04:53:23;4.90;;;2.53;;
78108;SDS011;67354;48.068;11.612;2023-02-21T04:55:48;3.33;;;2.38;;
78108;SDS011;67354;48.068;11.612;2023-02-21T04:58:13;5.27;;;2.60;;
78108;SDS011;67354;48.068;11.612;2023-02-21T05:00:39;4.32;;;2.60;;
78108;SDS011;67354;48.068;11.612;2023-02-21T05:03:04;4.80;;;2.73;;
78108;SDS011;67354;48.068;11.612;2023-02-21T05:05:29;4.53;;;2.57;;
78108;SDS011;67354;48.068;11.612;2023-02-21T05:07:55;5.65;;;2.25;;
78108;SDS011;67354;48.068;11.612;2023-02-21T05:10:20;3.93;;;2.10;;
78108;SDS011;67354;48.068;11.612;2023-02-21T05:12:45;3.40;;;2.03;;
78108;SDS011;67354;48.068;11.612;2023-02-21T05:15:11;3.35;;;2.20;;
78108;SDS011;67354;48.068;11.612;2023-02-21T05:17:37;2.88;;;2.20;;
78108;SDS011;67354;48.068;11.612;2023-02-21T05:20:03;3.30;;;1.90;;
78108;SDS011;67354;48.068;11.612;2023-02-21T05:22:28;6.68;;;2.40;;
78108;SDS011;67354;48.068;11.612;2023-02-21T05:24:54;4.50;;;2.33;;
78108;SDS011;67354;48.068;11.612;2023-02-21T05:27:20;5.20;;;2.20;;
78108;SDS011;67354;48.068;11.612;2023-02-21T05:29:49;3.85;;;2.50;;
78108;SDS011;67354;48.068;11.612;2023-02-21T05:32:17;3.80;;;2.08;;
78108;SDS011;67354;48.068;11.612;2023-02-21T05:34:44;2.70;;;1.85;;
78108;SDS011;67354;48.068;11.612;2023-02-21T05:37:11;2.70;;;1.88;;
78108;SDS011;67354;48.068;11.612;2023-02-21T05:39:37;2.88;;;1.90;;
78108;SDS011;67354;48.068;11.612;2023-02-21T05:42:02;3.03;;;2.03;;
78108;SDS011;67354;48.068;11.612;2023-02-21T05:44:28;2.42;;;1.98;;
78108;SDS011;67354;48.068;11.612;2023-02-21T05:46:53;3.00;;;1.93;;
78108;SDS011;67354;48.068;11.612;2023-02-21T05:49:18;2.90;;;1.70;;
78108;SDS011;67354;48.068;11.612;2023-02-21T05:51:44;2.55;;;2.00;;
78108;SDS011;67354;48.068;11.612;2023-02-21T05:54:14;2.60;;;1.90;;
78108;SDS011;67354;48.068;11.612;2023-02-21T05:56:42;3.17;;;2.10;;
78108;SDS011;67354;48.068;11.612;2023-02-21T05:59:08;2.42;;;1.90;;
78108;SDS011;67354;48.068;11.612;2023-02-21T06:01:34;3.05;;;2.03;;
78108;SDS011;67354;48.068;11.612;2023-02-21T06:04:00;2.38;;;1.80;;
78108;SDS011;67354;48.068;11.612;2023-02-21T06:06:25;3.17;;;2.07;;
78108;SDS011;67354;48.068;11.612;2023-02-21T06:08:51;3.30;;;1.90;;
78108;SDS011;67354;48.068;11.612;2023-02-21T06:11:38;2.13;;;1.60;;
78108;SDS011;67354;48.068;11.612;2023-02-21T06:14:03;3.50;;;1.73;;
78108;SDS011;67354;48.068;11.612;2023-02-21T06:16:36;3.97;;;2.30;;
78108;SDS011;67354;48.068;11.612;2023-02-21T06:19:03;2.55;;;1.70;;
78108;SDS011;67354;48.068;11.612;2023-02-21T06:21:29;2.90;;;1.60;;
78108;SDS011;67354;48.068;11.612;2023-02-21T06:23:55;4.07;;;1.70;;
78108;SDS011;67354;48.068;11.612;2023-02-21T06:26:21;3.90;;;1.80;;
78108;SDS011;67354;48.068;11.612;2023-02-21T06:28:46;3.25;;;2.03;;
78108;SDS011;67354;48.068;11.612;2023-02-21T06:31:12;2.85;;;1.98;;
78108;SDS011;67354;48.068;11.612;2023-02-21T06:33:37;2.60;;;1.75;;
78108;SDS011;67354;48.068;11.612;2023-02-21T06:36:06;5.38;;;2.13;;
78108;SDS011;67354;48.068;11.612;2023-02-21T06:38:34;5.72;;;1.85;;
78108;SDS011;67354;48.068;11.612;2023-02-21T06:41:00;4.55;;;2.20;;
78108;SDS011;67354;48.068;11.612;2023-02-21T06:43:29;2.45;;;1.90;;
78108;SDS011;67354;48.068;11.612;2023-02-21T06:45:55;2.83;;;1.90;;
78108;SDS011;67354;48.068;11.612;2023-02-21T06:48:20;3.03;;;1.80;;
78108;SDS011;67354;48.068;11.612;2023-02-21T06:50:45;2.88;;;2.08;;
78108;SDS011;67354;48.068;11.612;2023-02-21T06:53:11;3.08;;;1.95;;
78108;SDS011;67354;48.068;11.612;2023-02-21T06:55:36;3.83;;;2.20;;
78108;SDS011;67354;48.068;11.612;2023-02-21T06:58:01;4.57;;;1.97;;
78108;SDS011;67354;48.068;11.612;2023-02-21T07:00:27;2.93;;;1.70;;
78108;SDS011;67354;48.068;11.612;2023-02-21T07:02:52;4.65;;;2.00;;
78108;SDS011;67354;48.068;11.612;2023-02-21T07:05:18;3.13;;;2.10;;
78108;SDS011;67354;48.068;11.612;2023-02-21T07:07:43;5.20;;;1.80;;
78108;SDS011;67354;48.068;11.612;2023-02-21T07:10:09;2.03;;;1.58;;
78108;SDS011;67354;48.068;11.612;2023-02-21T07:12:35;2.92;;;1.92;;
78108;SDS011;67354;48.068;11.612;2023-02-21T07:15:01;3.60;;;2.00;;
78108;SDS011;67354;48.068;11.612;2023-02-21T07:17:26;2.75;;;1.80;;
78108;SDS011;67354;48.068;11.612;2023-02-21T07:19:52;3.50;;;1.93;;
78108;SDS011;67354;48.068;11.612;2023-02-21T07:22:17;3.33;;;1.85;;
78108;SDS011;67354;48.068;11.612;2023-02-21T07:24:49;4.05;;;1.98;;
78108;SDS011;67354;48.068;11.612;2023-02-21T07:27:15;4.60;;;2.00;;
78108;SDS011;67354;48.068;11.612;2023-02-21T07:29:40;4.60;;;2.57;;
78108;SDS011;67354;48.068;11.612;2023-02-21T07:32:06;5.57;;;2.17;;
78108;SDS011;67354;48.068;11.612;2023-02-21T07:34:31;3.50;;;2.45;;
78108;SDS011;67354;48.068;11.612;2023-02-21T07:36:56;4.00;;;2.30;;
78108;SDS011;67354;48.068;11.612;2023-02-21T07:39:22;3.53;;;2.28;;
78108;SDS011;67354;48.068;11.612;2023-02-21T07:41:48;3.90;;;2.10;;
78108;SDS011;67354;48.068;11.612;2023-02-21T07:44:13;5.65;;;2.30;;
78108;SDS011;67354;48.068;11.612;2023-02-21T07:46:39;3.28;;;2.00;;
78108;SDS011;67354;48.068;11.612;2023-02-21T07:49:06;4.70;;;2.13;;
78108;SDS011;67354;48.068;11.612;2023-02-21T07:51:33;4.75;;;2.10;;
78108;SDS011;67354;48.068;11.612;2023-02-21T07:53:59;3.38;;;1.80;;
78108;SDS011;67354;48.068;11.612;2023-02-21T07:56:25;4.73;;;2.00;;
78108;SDS011;67354;48.068;11.612;2023-02-21T07:58:50;4.93;;;2.13;;
78108;SDS011;67354;48.068;11.612;2023-02-21T08:01:15;4.00;;;2.20;;
78108;SDS011;67354;48.068;11.612;2023-02-21T08:03:41;5.15;;;2.10;;
78108;SDS011;67354;48.068;11.612;2023-02-21T08:06:07;5.68;;;2.08;;
78108;SDS011;67354;48.068;11.612;2023-02-21T08:08:33;3.85;;;1.80;;
78108;SDS011;67354;48.068;11.612;2023-02-21T08:10:58;6.30;;;2.00;;
78108;SDS011;67354;48.068;11.612;2023-02-21T08:13:23;3.88;;;1.80;;
78108;SDS011;67354;48.068;11.612;2023-02-21T08:15:49;3.73;;;1.70;;
78108;SDS011;67354;48.068;11.612;2023-02-21T08:18:18;3.15;;;1.70;;
78108;SDS011;67354;48.068;11.612;2023-02-21T08:20:48;3.38;;;1.60;;
78108;SDS011;67354;48.068;11.612;2023-02-21T08:23:20;3.97;;;1.70;;
78108;SDS011;67354;48.068;11.612;2023-02-21T08:25:46;2.90;;;1.70;;
78108;SDS011;67354;48.068;11.612;2023-02-21T08:28:12;3.17;;;1.80;;
78108;SDS011;67354;48.068;11.612;2023-02-21T08:30:38;2.05;;;1.55;;
78108;SDS011;67354;48.068;11.612;2023-02-21T08:33:03;2.33;;;1.48;;
78108;SDS011;67354;48.068;11.612;2023-02-21T08:35:29;4.40;;;2.08;;
78108;SDS011;67354;48.068;11.612;2023-02-21T08:37:54;4.43;;;1.80;;
78108;SDS011;67354;48.068;11.612;2023-02-21T08:40:20;5.70;;;2.70;;
78108;SDS011;67354;48.068;11.612;2023-02-21T08:42:47;2.25;;;1.50;;
78108;SDS011;67354;48.068;11.612;2023-02-21T08:45:15;2.55;;;1.90;;
78108;SDS011;67354;48.068;11.612;2023-02-21T08:47:41;2.95;;;1.80;;
78108;SDS011;67354;48.068;11.612;2023-02-21T08:50:06;3.60;;;1.88;;
78108;SDS011;67354;48.068;11.612;2023-02-21T08:52:32;3.90;;;1.67;;
78108;SDS011;67354;48.068;11.612;2023-02-21T08:54:57;2.60;;;1.50;;
78108;SDS011;67354;48.068;11.612;2023-02-21T08:57:22;3.80;;;1.60;;
78108;SDS011;67354;48.068;11.612;2023-02-21T08:59:48;3.47;;;2.30;;
78108;SDS011;67354;48.068;11.612;2023-02-21T09:02:17;4.15;;;1.70;;
78108;SDS011;67354;48.068;11.612;2023-02-21T09:04:44;3.88;;;1.90;;
78108;SDS011;67354;48.068;11.612;2023-02-21T09:07:13;3.20;;;1.70;;
78108;SDS011;67354;48.068;11.612;2023-02-21T09:09:39;2.53;;;1.50;;
78108;SDS011;67354;48.068;11.612;2023-02-21T09:12:05;4.40;;;1.95;;
78108;SDS011;67354;48.068;11.612;2023-02-21T09:14:34;3.55;;;1.63;;
78108;SDS011;67354;48.068;11.612;2023-02-21T09:17:00;3.28;;;1.67;;
78108;SDS011;67354;48.068;11.612;2023-02-21T09:19:26;2.33;;;1.75;;
78108;SDS011;67354;48.068;11.612;2023-02-21T09:21:51;2.22;;;1.60;;
78108;SDS011;67354;48.068;11.612;2023-02-21T09:24:19;3.60;;;1.60;;
78108;SDS011;67354;48.068;11.612;2023-02-21T09:26:56;3.25;;;1.70;;
78108;SDS011;67354;48.068;11.612;2023-02-21T09:29:23;1.85;;;1.30;;
78108;SDS011;67354;48.068;11.612;2023-02-21T09:31:51;2.95;;;1.35;;
78108;SDS011;67354;48.068;11.612;2023-02-21T09:34:17;2.75;;;1.50;;
78108;SDS011;67354;48.068;11.612;2023-02-21T09:36:42;2.55;;;1.40;;
78108;SDS011;67354;48.068;11.612;2023-02-21T09:39:08;1.90;;;1.40;;
78108;SDS011;67354;48.068;11.612;2023-02-21T09:41:34;2.53;;;1.50;;
78108;SDS011;67354;48.068;11.612;2023-02-21T09:44:00;4.07;;;1.38;;
78108;SDS011;67354;48.068;11.612;2023-02-21T09:46:38;3.22;;;1.30;;
78108;SDS011;67354;48.068;11.612;2023-02-21T09:49:21;2.97;;;1.45;;
78108;SDS011;67354;48.068;11.612;2023-02-21T09:51:50;2.05;;;1.30;;
78108;SDS011;67354;48.068;11.612;2023-02-21T09:56:57;2.90;;;1.40;;
78108;SDS011;67354;48.068;11.612;2023-02-21T09:59:24;1.98;;;1.25;;
78108;SDS011;67354;48.068;11.612;2023-02-21T10:10:15;2.70;;;1.48;;
78108;SDS011;67354;48.068;11.612;2023-02-21T10:12:54;2.10;;;1.45;;
78108;SDS011;67354;48.068;11.612;2023-02-21T10:18:21;2.22;;;1.08;;
78108;SDS011;67354;48.068;11.612;2023-02-21T10:20:53;3.22;;;1.60;;
78108;SDS011;67354;48.068;11.612;2023-02-21T10:23:38;1.83;;;1.27;;
78108;SDS011;67354;48.068;11.612;2023-02-21T10:26:08;3.05;;;1.23;;
78108;SDS011;67354;48.068;11.612;2023-02-21T10:28:35;2.83;;;1.25;;
78108;SDS011;67354;48.068;11.612;2023-02-21T10:31:03;2.13;;;1.30;;
78108;SDS011;67354;48.068;11.612;2023-02-21T10:33:32;1.42;;;1.08;;
78108;SDS011;67354;48.068;11.612;2023-02-21T10:36:00;2.10;;;1.17;;
78108;SDS011;67354;48.068;11.612;2023-02-21T10:38:25;1.73;;;1.07;;
78108;SDS011;67354;48.068;11.612;2023-02-21T10:43:29;1.52;;;1.42;;
78108;SDS011;67354;48.068;11.612;2023-02-21T10:45:58;1.85;;;1.20;;
78108;SDS011;67354;48.068;11.612;2023-02-21T10:48:32;1.63;;;1.20;;
78108;SDS011;67354;48.068;11.612;2023-02-21T10:53:37;2.90;;;1.17;;
78108;SDS011;67354;48.068;11.612;2023-02-21T10:56:14;5.25;;;1.40;;
78108;SDS011;67354;48.068;11.612;2023-02-21T10:58:46;2.08;;;1.30;;
78108;SDS011;67354;48.068;11.612;2023-02-21T11:01:29;1.45;;;1.08;;
78108;SDS011;67354;48.068;11.612;2023-02-21T11:04:22;1.55;;;1.02;;
78108;SDS011;67354;48.068;11.612;2023-02-21T11:06:53;4.88;;;1.20;;
78108;SDS011;67354;48.068;11.612;2023-02-21T11:09:29;2.13;;;1.10;;
78108;SDS011;67354;48.068;11.612;2023-02-21T11:12:11;1.60;;;1.25;;
78108;SDS011;67354;48.068;11.612;2023-02-21T11:14:40;1.85;;;1.20;;
78108;SDS011;67354;48.068;11.612;2023-02-21T11:17:14;2.58;;;1.35;;
78108;SDS011;67354;48.068;11.612;2023-02-21T11:22:09;2.17;;;1.20;;
78108;SDS011;67354;48.068;11.612;2023-02-21T11:24:53;1.52;;;1.17;;
78108;SDS011;67354;48.068;11.612;2023-02-21T11:27:22;3.03;;;1.60;;
78108;SDS011;67354;48.068;11.612;2023-02-21T11:29:48;1.58;;;1.20;;
78108;SDS011;67354;48.068;11.612;2023-02-21T11:32:25;2.33;;;1.30;;
78108;SDS011;67354;48.068;11.612;2023-02-21T11:34:59;2.30;;;2.08;;
78108;SDS011;67354;48.068;11.612;2023-02-21T11:37:30;3.10;;;1.40;;
78108;SDS011;67354;48.068;11.612;2023-02-21T11:39:57;1.98;;;1.15;;
78108;SDS011;67354;48.068;11.612;2023-02-21T11:45:04;3.40;;;1.70;;
78108;SDS011;67354;48.068;11.612;2023-02-21T11:47:32;2.20;;;1.50;;
78108;SDS011;67354;48.068;11.612;2023-02-21T11:50:06;3.08;;;1.50;;
78108;SDS011;67354;48.068;11.612;2023-02-21T11:52:55;2.38;;;1.58;;
78108;SDS011;67354;48.068;11.612;2023-02-21T11:55:25;3.28;;;1.23;;
78108;SDS011;67354;48.068;11.612;2023-02-21T12:03:07;2.83;;;1.30;;
78108;SDS011;67354;48.068;11.612;2023-02-21T12:05:58;2.40;;;1.20;;
78108;SDS011;67354;48.068;11.612;2023-02-21T12:09:00;1.65;;;1.20;;
78108;SDS011;67354;48.068;11.612;2023-02-21T12:25:07;1.65;;;1.00;;
78108;SDS011;67354;48.068;11.612;2023-02-21T12:27:45;3.33;;;1.35;;
78108;SDS011;67354;48.068;11.612;2023-02-21T12:35:57;4.63;;;1.30;;
78108;SDS011;67354;48.068;11.612;2023-02-21T12:44:16;2.63;;;1.48;;
78108;SDS011;67354;48.068;11.612;2023-02-21T12:46:56;2.13;;;1.20;;
78108;SDS011;67354;48.068;11.612;2023-02-21T12:57:28;1.30;;;1.10;;
78108;SDS011;67354;48.068;11.612;2023-02-21T13:00:31;1.45;;;1.00;;
78108;SDS011;67354;48.068;11.612;2023-02-21T13:05:45;1.63;;;1.00;;
78108;SDS011;67354;48.068;11.612;2023-02-21T13:08:42;2.40;;;1.15;;
78108;SDS011;67354;48.068;11.612;2023-02-21T13:11:19;1.40;;;1.27;;
78108;SDS011;67354;48.068;11.612;2023-02-21T13:13:48;1.88;;;1.20;;
78108;SDS011;67354;48.068;11.612;2023-02-21T13:16:14;1.38;;;1.17;;
78108;SDS011;67354;48.068;11.612;2023-02-21T13:18:41;3.33;;;1.30;;
78108;SDS011;67354;48.068;11.612;2023-02-21T13:21:18;1.75;;;1.30;;
78108;SDS011;67354;48.068;11.612;2023-02-21T13:23:57;2.65;;;1.40;;
78108;SDS011;67354;48.068;11.612;2023-02-21T13:26:36;2.13;;;1.10;;
78108;SDS011;67354;48.068;11.612;2023-02-21T13:29:43;3.63;;;1.15;;
78108;SDS011;67354;48.068;11.612;2023-02-21T13:32:06;2.30;;;1.30;;
78108;SDS011;67354;48.068;11.612;2023-02-21T13:34:35;2.15;;;1.15;;
78108;SDS011;67354;48.068;11.612;2023-02-21T13:37:06;3.20;;;1.35;;
78108;SDS011;67354;48.068;11.612;2023-02-21T13:42:05;1.83;;;1.30;;
78108;SDS011;67354;48.068;11.612;2023-02-21T13:44:35;3.05;;;1.75;;
78108;SDS011;67354;48.068;11.612;2023-02-21T13:47:13;1.92;;;1.38;;
78108;SDS011;67354;48.068;11.612;2023-02-21T13:49:41;1.40;;;1.05;;
78108;SDS011;67354;48.068;11.612;2023-02-21T13:55:47;2.20;;;1.30;;
78108;SDS011;67354;48.068;11.612;2023-02-21T13:58:21;2.10;;;1.20;;
78108;SDS011;67354;48.068;11.612;2023-02-21T14:08:07;1.27;;;1.02;;
78108;SDS011;67354;48.068;11.612;2023-02-21T14:10:48;2.45;;;1.38;;
78108;SDS011;67354;48.068;11.612;2023-02-21T14:15:46;3.55;;;1.50;;
78108;SDS011;67354;48.068;11.612;2023-02-21T14:18:59;1.23;;;1.10;;
78108;SDS011;67354;48.068;11.612;2023-02-21T14:24:21;2.83;;;1.35;;
78108;SDS011;67354;48.068;11.612;2023-02-21T14:26:49;1.77;;;1.27;;
78108;SDS011;67354;48.068;11.612;2023-02-21T14:29:34;2.38;;;1.30;;
78108;SDS011;67354;48.068;11.612;2023-02-21T14:40:00;2.75;;;1.33;;
78108;SDS011;67354;48.068;11.612;2023-02-21T14:51:56;2.13;;;1.20;;
78108;SDS011;67354;48.068;11.612;2023-02-21T15:00:17;3.05;;;1.20;;
78108;SDS011;67354;48.068;11.612;2023-02-21T15:05:41;2.17;;;1.27;;
78108;SDS011;67354;48.068;11.612;2023-02-21T15:08:20;2.22;;;1.30;;
78108;SDS011;67354;48.068;11.612;2023-02-21T15:10:49;1.75;;;1.30;;
78108;SDS011;67354;48.068;11.612;2023-02-21T15:13:26;3.25;;;1.73;;
78108;SDS011;67354;48.068;11.612;2023-02-21T15:16:04;1.75;;;1.15;;
78108;SDS011;67354;48.068;11.612;2023-02-21T15:23:39;1.83;;;1.25;;
78108;SDS011;67354;48.068;11.612;2023-02-21T15:29:02;2.63;;;1.50;;
78108;SDS011;67354;48.068;11.612;2023-02-21T15:31:52;3.47;;;1.42;;
78108;SDS011;67354;48.068;11.612;2023-02-21T15:34:24;3.45;;;1.50;;
78108;SDS011;67354;48.068;11.612;2023-02-21T15:36:56;1.27;;;1.08;;
78108;SDS011;67354;48.068;11.612;2023-02-21T15:39:28;1.95;;;1.30;;
78108;SDS011;67354;48.068;11.612;2023-02-21T15:41:56;1.60;;;1.20;;
78108;SDS011;67354;48.068;11.612;2023-02-21T15:46:56;1.90;;;1.33;;
78108;SDS011;67354;48.068;11.612;2023-02-21T15:49:25;1.77;;;1.25;;
78108;SDS011;67354;48.068;11.612;2023-02-21T15:51:52;1.75;;;1.27;;
78108;SDS011;67354;48.068;11.612;2023-02-21T15:54:23;2.05;;;1.50;;
78108;SDS011;67354;48.068;11.612;2023-02-21T15:57:03;3.35;;;1.38;;
78108;SDS011;67354;48.068;11.612;2023-02-21T15:59:29;5.05;;;3.13;;
78108;SDS011;67354;48.068;11.612;2023-02-21T16:04:38;3.40;;;1.42;;
78108;SDS011;67354;48.068;11.612;2023-02-21T16:09:58;3.22;;;1.30;;
78108;SDS011;67354;48.068;11.612;2023-02-21T16:12:30;3.15;;;1.40;;
78108;SDS011;67354;48.068;11.612;2023-02-21T16:15:13;1.52;;;1.10;;
78108;SDS011;67354;48.068;11.612;2023-02-21T16:17:43;2.45;;;1.60;;
78108;SDS011;67354;48.068;11.612;2023-02-21T16:20:14;2.55;;;1.42;;
78108;SDS011;67354;48.068;11.612;2023-02-21T16:22:42;1.70;;;1.30;;
78108;SDS011;67354;48.068;11.612;2023-02-21T16:27:40;2.20;;;1.27;;
78108;SDS011;67354;48.068;11.612;2023-02-21T16:30:11;2.10;;;1.38;;
78108;SDS011;67354;48.068;11.612;2023-02-21T16:32:40;2.22;;;1.33;;
78108;SDS011;67354;48.068;11.612;2023-02-21T16:35:11;2.28;;;1.15;;
78108;SDS011;67354;48.068;11.612;2023-02-21T16:37:40;1.95;;;1.20;;
78108;SDS011;67354;48.068;11.612;2023-02-21T16:40:12;2.40;;;1.45;;
78108;SDS011;67354;48.068;11.612;2023-02-21T16:42:39;2.72;;;1.40;;
78108;SDS011;67354;48.068;11.612;2023-02-21T16:45:04;2.72;;;1.45;;
78108;SDS011;67354;48.068;11.612;2023-02-21T16:47:30;2.60;;;1.65;;
78108;SDS011;67354;48.068;11.612;2023-02-21T16:49:55;2.00;;;1.30;;
78108;SDS011;67354;48.068;11.612;2023-02-21T16:52:21;2.20;;;1.50;;
78108;SDS011;67354;48.068;11.612;2023-02-21T16:54:46;3.77;;;2.03;;
78108;SDS011;67354;48.068;11.612;2023-02-21T16:57:11;2.73;;;1.70;;
78108;SDS011;67354;48.068;11.612;2023-02-21T16:59:37;3.28;;;1.70;;
78108;SDS011;67354;48.068;11.612;2023-02-21T17:02:02;3.38;;;2.10;;
78108;SDS011;67354;48.068;11.612;2023-02-21T17:04:29;3.58;;;1.65;;
78108;SDS011;67354;48.068;11.612;2023-02-21T17:06:55;2.47;;;1.60;;
78108;SDS011;67354;48.068;11.612;2023-02-21T17:09:23;3.85;;;1.70;;
78108;SDS011;67354;48.068;11.612;2023-02-21T17:11:50;2.47;;;1.60;;
78108;SDS011;67354;48.068;11.612;2023-02-21T17:14:17;2.67;;;1.70;;
78108;SDS011;67354;48.068;11.612;2023-02-21T17:16:43;3.75;;;1.70;;
78108;SDS011;67354;48.068;11.612;2023-02-21T17:19:12;5.28;;;1.67;;
78108;SDS011;67354;48.068;11.612;2023-02-21T17:21:42;3.72;;;1.90;;
78108;SDS011;67354;48.068;11.612;2023-02-21T17:24:08;4.05;;;1.70;;
78108;SDS011;67354;48.068;11.612;2023-02-21T17:26:35;3.28;;;1.80;;
78108;SDS011;67354;48.068;11.612;2023-02-21T17:29:01;3.45;;;1.90;;
78108;SDS011;67354;48.068;11.612;2023-02-21T17:31:26;3.17;;;1.60;;
78108;SDS011;67354;48.068;11.612;2023-02-21T17:33:51;5.88;;;2.00;;
78108;SDS011;67354;48.068;11.612;2023-02-21T17:36:19;3.33;;;1.95;;
78108;SDS011;67354;48.068;11.612;2023-02-21T17:38:45;2.88;;;2.00;;